Time;durP1;ratioP1;P1;durP2;ratioP2;P2;SDS_P1;SDS_P2;PMS_P1;PMS_P2;Temp;Humidity;BMP_temperature;BMP_pressure;BME280_temperature;BME280_humidity;BME280_pressure;Samples;Min_cycle;Max_cycle;Signal;HPM_P1;HPM_P2
2022/06/19 00:01:47;;;;;;;9.82;5.85;;;;;;;-143.10;100.00;51073.34;4855529;29;20121;-66
2022/06/19 00:04:29;;;;;;;13.90;6.57;;;;;;;-143.10;100.00;51132.06;4855591;29;20065;-66
2022/06/19 00:07:19;;;;;;;10.73;5.60;;;;;;;-143.10;100.00;51116.41;4855613;29;20145;-65
2022/06/19 00:10:03;;;;;;;11.18;6.40;;;;;;;-143.10;100.00;51130.09;4855898;29;20145;-66
2022/06/19 00:12:52;;;;;;;10.05;4.55;;;;;;;-143.10;100.00;51114.44;4855526;29;20049;-66
2022/06/19 00:15:34;;;;;;;7.05;4.78;;;;;;;-143.10;100.00;51096.81;4855442;29;20057;-66
2022/06/19 00:18:23;;;;;;;11.98;4.80;;;;;;;-143.10;100.00;51094.88;4855633;29;20057;-66
2022/06/19 00:21:19;;;;;;;12.00;4.72;;;;;;;-143.10;100.00;51104.66;4866827;29;20071;-66
2022/06/19 00:24:15;;;;;;;6.35;4.72;;;;;;;-143.10;100.00;51104.66;4855639;29;20049;-66
2022/06/19 00:26:51;;;;;;;9.10;4.32;;;;;;;-143.10;100.00;51096.81;4855387;29;20063;-66
2022/06/19 00:29:40;;;;;;;6.38;4.22;;;;;;;-143.10;100.00;51092.91;4854950;29;20381;-66
2022/06/19 00:32:25;;;;;;;9.05;4.60;;;;;;;-143.10;100.00;51116.41;4854436;29;20134;-67
2022/06/19 00:35:14;;;;;;;13.70;5.40;;;;;;;-143.10;99.35;51065.50;4854925;29;20141;-67
2022/06/19 00:37:56;;;;;;;6.45;3.63;;;;;;;-143.10;98.28;51104.66;4855217;29;20060;-67
2022/06/19 00:40:52;;;;;;;5.32;3.30;;;;;;;-143.10;97.30;51083.13;4854745;29;20045;-67
2022/06/19 00:43:29;;;;;;;9.38;3.63;;;;;;;-143.10;97.71;51069.41;4855108;29;20124;-67
2022/06/19 00:46:48;;;;;;;5.50;2.95;;;;;;;-143.10;95.16;51092.91;4846318;29;20054;-67
2022/06/19 00:49:32;;;;;;;7.28;3.22;;;;;;;-143.10;96.73;51073.34;4834528;29;20615;-66
2022/06/19 00:52:29;;;;;;;9.45;3.17;;;;;;;-143.10;93.63;51061.59;4836112;29;20473;-66
2022/06/19 00:55:16;;;;;;;5.57;2.78;;;;;;;-143.10;91.46;51081.16;4836216;29;20049;-67
2022/06/19 00:58:14;;;;;;;4.70;2.35;;;;;;;-143.10;91.59;51100.75;4836402;29;20060;-65
2022/06/19 01:01:12;;;;;;;3.80;2.35;;;;;;;-143.10;90.03;51085.06;4835561;29;20054;-67
2022/06/19 01:04:20;;;;;;;5.05;2.15;;;;;;;-143.10;90.14;51073.34;4848408;29;20054;-67
2022/06/19 01:07:05;;;;;;;11.43;2.40;;;;;;;-143.10;88.79;51087.03;4835275;29;20049;-67
2022/06/19 01:09:54;;;;;;;3.28;2.28;;;;;;;-143.10;90.10;51077.25;4836130;29;20443;-67
2022/06/19 01:12:37;;;;;;;7.03;2.70;;;;;;;-143.10;92.31;51092.91;4836176;29;20433;-67
2022/06/19 01:15:27;;;;;;;5.50;2.72;;;;;;;-143.10;90.79;51090.94;4835859;29;20068;-67
2022/06/19 01:18:12;;;;;;;5.20;3.13;;;;;;;-143.10;90.40;51087.03;4835582;29;20366;-68
2022/06/19 01:21:10;;;;;;;7.25;3.58;;;;;;;-143.10;90.70;51132.06;4836423;29;20065;-67
2022/06/19 01:24:11;;;;;;;11.38;4.35;;;;;;;-143.10;87.45;51116.41;4857393;29;20175;-68
2022/06/19 01:27:09;;;;;;;10.57;3.78;;;;;;;-143.10;86.42;51100.75;4853931;29;20038;-67
2022/06/19 01:30:00;;;;;;;7.00;3.25;;;;;;;-143.10;88.18;51089.00;4853884;29;20076;-67
2022/06/19 01:32:44;;;;;;;13.57;4.97;;;;;;;-143.10;84.95;51057.66;4862898;29;20053;-67
2022/06/19 01:35:35;;;;;;;9.40;4.80;;;;;;;-143.10;85.26;51096.81;4861131;29;20049;-67
2022/06/19 01:38:27;;;;;;;8.48;4.40;;;;;;;-143.10;86.42;51092.91;4853478;29;20065;-68
2022/06/19 01:41:25;;;;;;;8.73;4.47;;;;;;;-143.10;88.71;51124.22;4853640;29;20053;-67
2022/06/19 01:44:14;;;;;;;11.48;6.90;;;;;;;-143.10;90.00;51092.91;4853538;29;20693;-67
2022/06/19 01:46:57;;;;;;;12.93;8.25;;;;;;;-143.10;87.39;51092.91;4854152;29;20069;-68
2022/06/19 01:49:51;;;;;;;17.33;10.65;;;;;;;-143.10;86.71;51100.75;4868220;29;20045;-68
2022/06/19 01:52:40;;;;;;;22.08;12.68;;;;;;;-143.10;84.47;51061.59;4853770;29;20060;-68
2022/06/19 01:55:28;;;;;;;23.35;13.68;;;;;;;-143.10;83.54;51106.63;4846691;29;20053;-67
2022/06/19 01:58:19;;;;;;;27.83;15.65;;;;;;;-143.10;82.10;51092.91;4846305;29;20053;-67
2022/06/19 02:01:02;;;;;;;30.85;15.65;;;;;;;-143.10;88.79;51049.84;4853719;29;20056;-67
2022/06/19 02:03:57;;;;;;;34.20;18.83;;;;;;;-143.10;81.26;51087.03;4853658;29;20141;-67
2022/06/19 02:06:53;;;;;;;30.92;18.75;;;;;;;-143.10;82.38;51051.78;4853468;29;20053;-67
2022/06/19 02:09:36;;;;;;;31.77;19.88;;;;;;;-143.10;87.22;51092.91;4853498;29;20053;-67
2022/06/19 02:12:26;;;;;;;25.83;16.55;;;;;;;-143.10;81.87;51102.69;4853289;29;20656;-67
2022/06/19 02:15:11;;;;;;;25.95;16.95;;;;;;;-143.10;80.52;51089.00;4853413;29;20054;-67
2022/06/19 02:18:01;;;;;;;26.88;16.38;;;;;;;-143.10;83.19;51085.06;4853749;29;20097;-67
2022/06/19 02:20:43;;;;;;;19.17;12.88;;;;;;;-143.10;78.10;51042.00;4853288;29;20508;-67
2022/06/19 02:23:37;;;;;;;20.13;12.75;;;;;;;-143.10;80.89;51053.75;4853537;29;20057;-67
2022/06/19 02:26:28;;;;;;;22.90;12.45;;;;;;;-143.10;81.68;51081.16;4852428;29;20076;-67
2022/06/19 02:29:20;;;;;;;21.98;12.18;;;;;;;-143.10;85.03;51100.75;4853157;29;20045;-67
2022/06/19 02:32:03;;;;;;;17.75;10.93;;;;;;;-143.10;83.20;51108.56;4853152;29;20049;-67
2022/06/19 02:34:52;;;;;;;22.75;11.68;;;;;;;-143.10;78.31;51081.16;4853511;29;20057;-67
2022/06/19 02:37:41;;;;;;;19.10;11.48;;;;;;;-143.10;76.33;51057.66;4853454;29;20049;-68
2022/06/19 02:40:48;;;;;;;22.52;11.05;;;;;;;-143.10;75.09;51061.59;4852360;29;20061;-68
2022/06/19 02:43:37;;;;;;;21.55;9.95;;;;;;;-143.10;77.58;51073.34;4862647;29;20057;-68
2022/06/19 02:46:22;;;;;;;17.90;9.93;;;;;;;-143.10;70.51;51057.66;4852425;29;20110;-67
2022/06/19 02:49:11;;;;;;;17.92;9.85;;;;;;;-143.10;70.61;51053.75;4852439;29;20113;-68
2022/06/19 02:52:00;;;;;;;16.17;10.20;;;;;;;-143.10;66.13;51038.09;4852660;29;20553;-68
2022/06/19 02:54:42;;;;;;;14.57;7.38;;;;;;;-143.10;66.04;51049.84;4852821;29;20049;-67
2022/06/19 02:57:32;;;;;;;14.77;7.05;;;;;;;-143.10;64.91;51016.56;4852253;29;20053;-68
2022/06/19 03:00:21;;;;;;;10.40;5.68;;;;;;;-143.10;59.50;51034.19;4852464;29;20109;-67
2022/06/19 03:03:16;;;;;;;12.25;5.53;;;;;;;-143.10;60.46;51012.63;4866593;29;20080;-67
2022/06/19 03:06:07;;;;;;;13.60;5.50;;;;;;;-143.10;58.79;51061.59;4850901;29;20057;-66
2022/06/19 03:08:56;;;;;;;12.75;7.18;;;;;;;-143.10;60.62;51069.41;4852762;29;20061;-67
2022/06/19 03:11:38;;;;;;;16.60;8.68;;;;;;;-143.10;63.42;51042.00;4852077;29;20133;-67
2022/06/19 03:14:27;;;;;;;24.27;13.75;;;;;;;-143.10;61.13;51036.13;4851892;29;20121;-67
2022/06/19 03:17:19;;;;;;;23.10;12.38;;;;;;;-143.10;60.83;51026.34;4851965;29;20092;-68
2022/06/19 03:20:09;;;;;;;16.23;8.85;;;;;;;-143.10;59.27;51026.34;4852256;29;20389;-66
2022/06/19 03:23:04;;;;;;;15.98;8.52;;;;;;;-143.10;60.10;51042.00;4854298;29;20065;-68
2022/06/19 03:26:00;;;;;;;12.90;6.68;;;;;;;-143.10;58.30;51045.91;4822473;29;20500;-67
2022/06/19 03:28:49;;;;;;;11.52;4.70;;;;;;;-143.10;54.88;51014.59;4847212;29;20054;-68
2022/06/19 03:31:36;;;;;;;7.28;3.83;;;;;;;-143.10;56.04;51000.91;4815650;29;20046;-68
2022/06/19 03:34:25;;;;;;;7.38;3.13;;;;;;;-143.10;57.90;51032.22;4822418;29;20122;-67
2022/06/19 03:37:15;;;;;;;7.97;3.30;;;;;;;-143.10;59.03;51030.25;4833468;29;20058;-68
2022/06/19 03:40:04;;;;;;;9.43;3.45;;;;;;;-143.10;55.84;51010.69;4834075;29;20161;-68
2022/06/19 03:42:47;;;;;;;6.55;3.20;;;;;;;-143.10;58.29;51006.75;4833887;29;20121;-68
2022/06/19 03:45:36;;;;;;;5.55;2.78;;;;;;;-143.10;61.66;51034.19;4833541;29;20125;-68
2022/06/19 03:48:19;;;;;;;4.43;2.50;;;;;;;-143.10;57.36;50998.94;4840922;29;20061;-68
2022/06/19 03:51:09;;;;;;;4.95;2.38;;;;;;;-143.10;61.88;51040.03;4849847;29;20565;-68
2022/06/19 03:54:01;;;;;;;6.68;3.40;;;;;;;-143.10;57.95;51020.47;4815436;29;20348;-67
2022/06/19 03:56:43;;;;;;;9.13;3.55;;;;;;;-143.10;60.24;51020.47;4815025;29;20050;-67
2022/06/19 03:59:32;;;;;;;10.77;3.80;;;;;;;-143.10;59.48;51022.44;4815229;29;20069;-68
2022/06/19 04:02:21;;;;;;;10.52;3.45;;;;;;;-143.10;60.73;51020.47;4815235;29;20106;-67
2022/06/19 04:05:03;;;;;;;7.32;3.63;;;;;;;-143.10;58.69;51014.59;4815199;29;20058;-67
2022/06/19 04:07:52;;;;;;;15.52;3.63;;;;;;;-143.10;60.13;51040.03;4814869;29;20142;-68
2022/06/19 04:10:34;;;;;;;8.88;3.70;;;;;;;-143.10;57.15;51014.59;4814933;29;20752;-67
2022/06/19 04:13:23;;;;;;;9.75;3.53;;;;;;;-143.10;59.27;51030.25;4813757;29;20130;-67
2022/06/19 04:16:05;;;;;;;10.63;3.95;;;;;;;-143.10;62.47;51018.50;4815199;29;20680;-67
2022/06/19 04:19:03;;;;;;;8.82;3.50;;;;;;;-143.10;63.02;51038.09;4814828;29;20146;-67
2022/06/19 04:21:46;;;;;;;11.55;4.47;;;;;;;-143.10;62.53;51057.66;4829280;29;20146;-67
2022/06/19 04:24:41;;;;;;;8.52;4.25;;;;;;;-143.10;65.71;51026.34;4822932;29;20056;-66
2022/06/19 04:27:37;;;;;;;10.80;3.60;;;;;;;-143.10;63.19;51018.50;4832995;29;20056;-67
2022/06/19 04:30:30;;;;;;;8.98;4.00;;;;;;;-143.10;61.82;51022.44;4833176;29;20086;-67
2022/06/19 04:33:15;;;;;;;10.80;4.20;;;;;;;-143.10;63.43;51010.69;4850348;29;20390;-67
2022/06/19 04:36:04;;;;;;;7.35;4.20;;;;;;;-143.10;63.07;51065.50;4851498;29;20117;-67
2022/06/19 04:38:49;;;;;;;7.65;4.43;;;;;;;-143.10;66.40;51042.00;4865795;29;20075;-67
2022/06/19 04:41:43;;;;;;;10.43;4.35;;;;;;;-143.10;61.39;51024.38;4852852;29;20117;-68
2022/06/19 04:44:32;;;;;;;10.77;4.30;;;;;;;-143.10;67.10;51038.09;4854504;29;20128;-67
2022/06/19 04:47:14;;;;;;;7.47;4.55;;;;;;;-143.10;65.76;51042.00;4854789;29;20064;-68
2022/06/19 04:50:04;;;;;;;10.77;5.20;;;;;;;-143.10;67.84;51016.56;4820516;29;20307;-68
2022/06/19 04:52:53;;;;;;;9.65;4.28;;;;;;;-143.10;63.37;51030.25;4836319;29;20054;-68
2022/06/19 04:55:35;;;;;;;10.23;4.00;;;;;;;-143.10;69.24;51057.66;4836915;29;20057;-67
2022/06/19 04:58:24;;;;;;;14.05;4.63;;;;;;;-143.10;67.73;51049.84;4836319;29;20064;-68
2022/06/19 05:01:30;;;;;;;10.27;4.40;;;;;;;-143.10;65.80;51045.91;4836258;29;20507;-68
2022/06/19 05:04:15;;;;;;;11.77;4.90;;;;;;;-143.10;69.26;51026.34;4836168;29;20118;-69
2022/06/19 05:07:04;;;;;;;13.07;4.93;;;;;;;-143.10;64.21;51053.75;4835659;29;20506;-68
2022/06/19 05:09:46;;;;;;;15.63;5.88;;;;;;;-143.10;62.14;51032.22;4836206;29;20069;-68
2022/06/19 05:12:35;;;;;;;10.48;4.88;;;;;;;-143.10;68.40;51042.00;4835969;29;20061;-69
2022/06/19 05:15:25;;;;;;;12.00;5.15;;;;;;;-143.10;66.78;51065.50;4835864;29;20046;-69
2022/06/19 05:18:07;;;;;;;17.13;5.20;;;;;;;-143.10;62.67;51038.09;4853805;29;20049;-67
2022/06/19 05:21:04;;;;;;;14.82;4.60;;;;;;;-143.10;62.08;51089.00;4852510;29;20486;-67
2022/06/19 05:23:47;;;;;;;14.07;5.53;;;;;;;-143.10;60.60;51043.97;4853443;29;20050;-65
2022/06/19 05:26:43;;;;;;;10.45;5.05;;;;;;;-143.10;59.07;50991.09;4854523;29;20058;-66
2022/06/19 05:29:38;;;;;;;11.35;4.95;;;;;;;-143.10;61.91;51032.22;4855401;29;20049;-66
2022/06/19 05:32:27;;;;;;;10.95;4.53;;;;;;;-143.10;62.71;51034.19;4854169;29;20170;-67
2022/06/19 05:35:10;;;;;;;15.63;4.95;;;;;;;-143.10;62.15;51024.38;4853941;29;20049;-67
2022/06/19 05:37:59;;;;;;;15.13;5.85;;;;;;;-143.10;62.91;51030.25;4853942;29;20058;-67
2022/06/19 05:40:41;;;;;;;10.98;4.97;;;;;;;-143.10;63.94;51049.84;4853853;29;20710;-66
2022/06/19 05:43:33;;;;;;;11.65;4.50;;;;;;;-143.10;61.71;51047.88;4853835;29;20053;-67
2022/06/19 05:46:22;;;;;;;11.52;5.15;;;;;;;-143.10;62.55;51026.34;4853967;29;20057;-65
2022/06/19 05:49:11;;;;;;;9.48;5.35;;;;;;;-143.10;56.54;50996.97;4862478;29;20109;-67
2022/06/19 05:51:53;;;;;;;18.95;5.43;;;;;;;-143.10;61.20;51042.00;4854088;29;20058;-66
2022/06/19 05:54:43;;;;;;;15.05;5.03;;;;;;;-143.10;57.86;51002.84;4849041;29;20101;-65
2022/06/19 05:57:32;;;;;;;13.45;6.07;;;;;;;-143.10;57.47;50983.28;4859221;29;20533;-67
2022/06/19 06:00:14;;;;;;;17.55;6.07;;;;;;;-143.10;60.37;51008.72;4817546;29;20190;-66
2022/06/19 06:03:03;;;;;;;13.60;6.47;;;;;;;-143.10;60.73;50991.09;4850177;29;20053;-66
2022/06/19 06:05:45;;;;;;;14.20;5.68;;;;;;;-143.10;63.02;51002.84;4850488;29;20060;-66
2022/06/19 06:08:34;;;;;;;9.57;5.47;;;;;;;-143.10;62.03;51022.44;4858009;29;20057;-66
2022/06/19 06:11:17;;;;;;;11.65;5.88;;;;;;;-143.10;64.18;51002.84;4847977;29;20045;-66
2022/06/19 06:14:06;;;;;;;11.82;5.55;;;;;;;-143.10;61.72;50955.88;4850458;29;20049;-67
2022/06/19 06:16:48;;;;;;;13.98;6.20;;;;;;;-143.10;60.75;51018.50;4852919;29;20713;-66
2022/06/19 06:19:39;;;;;;;14.23;6.10;;;;;;;-143.10;61.21;50981.31;4853222;29;20057;-66
2022/06/19 06:22:28;;;;;;;12.63;5.32;;;;;;;-143.10;63.76;51010.69;4853434;29;20053;-66
2022/06/19 06:25:11;;;;;;;11.82;5.40;;;;;;;-143.10;57.86;50989.16;4853101;29;20065;-66
2022/06/19 06:28:00;;;;;;;15.38;6.85;;;;;;;-143.10;59.56;50983.28;4853673;29;20064;-67
2022/06/19 06:30:55;;;;;;;19.20;6.00;;;;;;;-143.10;59.96;50985.22;4833814;29;20114;-66
2022/06/19 06:33:38;;;;;;;18.75;6.97;;;;;;;-143.10;61.09;50995.03;4833842;29;20133;-66
2022/06/19 06:36:27;;;;;;;12.00;6.30;;;;;;;-143.10;59.99;50975.44;4833981;29;20050;-66
2022/06/19 06:39:09;;;;;;;15.13;6.97;;;;;;;-143.10;59.23;50987.19;4834415;29;20133;-66
2022/06/19 06:41:58;;;;;;;12.63;6.32;;;;;;;-143.10;57.09;50965.66;4834964;29;20129;-65
2022/06/19 06:44:48;;;;;;;14.40;7.05;;;;;;;-143.10;57.73;50987.19;4833122;29;20068;-65
2022/06/19 06:47:37;;;;;;;17.70;7.75;;;;;;;-143.10;64.29;50965.66;4836583;29;20062;-66
2022/06/19 06:50:19;;;;;;;15.90;6.82;;;;;;;-143.10;53.55;50987.19;4853142;29;20058;-66
2022/06/19 06:53:08;;;;;;;12.07;6.95;;;;;;;-143.10;57.50;51010.69;4852086;29;20137;-66
2022/06/19 06:55:50;;;;;;;17.15;6.57;;;;;;;-143.10;59.60;50969.56;4853176;29;20069;-65
2022/06/19 06:58:39;;;;;;;13.88;6.38;;;;;;;-143.10;57.23;50991.09;4852702;29;20516;-66
2022/06/19 07:01:34;;;;;;;13.82;5.53;;;;;;;-143.10;55.22;50969.56;4852793;29;20088;-66
2022/06/19 07:04:09;;;;;;;19.92;6.43;;;;;;;-143.10;57.97;50985.22;4852097;29;20063;-66
2022/06/19 07:06:58;;;;;;;14.68;6.22;;;;;;;-143.10;58.48;50979.34;4852748;29;20392;-66
2022/06/19 07:09:47;;;;;;;14.18;5.85;;;;;;;-143.10;55.77;50967.59;4852652;29;20049;-66
2022/06/19 07:12:29;;;;;;;10.70;5.80;;;;;;;-143.10;59.97;50961.72;4852402;29;20345;-66
2022/06/19 07:15:19;;;;;;;16.77;5.40;;;;;;;-143.10;53.17;50961.72;4818791;29;20049;-67
2022/06/19 07:18:14;;;;;;;19.30;5.93;;;;;;;-143.10;54.55;50998.94;4832608;29;20491;-66
2022/06/19 07:21:03;;;;;;;11.75;5.45;;;;;;;-143.10;54.05;50979.34;4834354;29;20474;-65
2022/06/19 07:23:48;;;;;;;13.75;5.40;;;;;;;-143.10;54.61;50971.53;4834091;29;20049;-66
2022/06/19 07:26:37;;;;;;;17.70;5.35;;;;;;;-143.10;54.54;50959.78;4833939;29;20122;-66
2022/06/19 07:29:26;;;;;;;15.40;6.88;;;;;;;-143.10;52.01;50983.28;4835327;29;20571;-66
2022/06/19 07:32:23;;;;;;;11.45;5.70;;;;;;;-143.10;53.35;51002.84;4833031;29;20064;-66
2022/06/19 07:34:59;;;;;;;10.73;5.47;;;;;;;-143.10;53.97;50932.38;4833907;29;20057;-66
2022/06/19 07:37:48;;;;;;;13.25;5.55;;;;;;;-143.10;61.12;50969.56;4819776;29;20117;-66
2022/06/19 07:40:38;;;;;;;14.90;5.60;;;;;;;-143.10;52.30;50942.16;4833289;29;20069;-67
2022/06/19 07:43:20;;;;;;;12.00;6.03;;;;;;;-143.10;51.60;50983.28;4831676;29;20553;-67
2022/06/19 07:46:09;;;;;;;6.40;4.22;;;;;;;-143.10;50.49;50971.53;4833261;29;20474;-67
2022/06/19 07:51:58;;;;;;;9.15;4.72;;;;;;;-143.10;53.53;50955.88;4833136;29;20137;-66
2022/06/19 07:54:47;;;;;;;9.60;4.78;;;;;;;-143.10;48.91;50955.88;4832240;29;20050;-66
2022/06/19 07:57:29;;;;;;;11.77;6.45;;;;;;;-143.10;52.71;50985.22;4832916;29;20065;-66
2022/06/19 08:00:26;;;;;;;11.70;5.25;;;;;;;-143.10;51.54;50959.78;4833168;29;20054;-66
2022/06/19 08:03:08;;;;;;;15.63;5.97;;;;;;;-143.10;50.78;50977.41;4833748;29;20050;-67
2022/06/19 08:05:57;;;;;;;11.20;5.38;;;;;;;-143.10;52.68;50977.41;4817351;29;20054;-65
2022/06/19 08:08:40;;;;;;;17.08;5.30;;;;;;;-143.10;54.65;50967.59;4837431;29;20336;-66
2022/06/19 08:11:29;;;;;;;16.20;6.38;;;;;;;-143.10;52.73;50953.91;4851724;29;20129;-66
2022/06/19 08:14:11;;;;;;;23.13;5.65;;;;;;;-143.10;50.51;50957.81;4852069;29;20068;-68
2022/06/19 08:17:00;;;;;;;12.07;5.28;;;;;;;-143.10;50.00;50969.56;4855204;29;20150;-66
2022/06/19 08:19:55;;;;;;;13.18;4.60;;;;;;;-143.10;51.87;51002.84;4855170;29;20053;-66
2022/06/19 08:22:31;;;;;;;14.90;6.10;;;;;;;-143.10;50.42;50938.25;4855183;29;20120;-66
2022/06/19 08:25:29;;;;;;;13.32;5.40;;;;;;;-143.10;52.17;50969.56;4855400;29;20053;-67
2022/06/19 08:28:05;;;;;;;12.40;5.50;;;;;;;-143.10;52.99;50916.72;4836128;29;20058;-67
2022/06/19 08:31:00;;;;;;;12.48;6.07;;;;;;;-143.10;49.81;50944.13;4845376;29;20145;-66
2022/06/19 08:33:35;;;;;;;11.95;6.82;;;;;;;-143.10;48.19;50959.78;4846427;29;20473;-66
2022/06/19 08:36:33;;;;;;;16.92;6.80;;;;;;;-143.10;48.83;50987.19;4854584;29;20128;-66
2022/06/19 08:39:14;;;;;;;10.07;5.03;;;;;;;-143.10;50.92;50955.88;4854822;29;20152;-66
2022/06/19 08:42:21;;;;;;;18.65;6.20;;;;;;;-143.10;51.25;50936.28;4855604;29;20046;-64
2022/06/19 08:44:57;;;;;;;12.90;6.90;;;;;;;-143.10;53.59;50955.88;4869566;29;20390;-66
2022/06/19 08:48:09;;;;;;;14.65;6.20;;;;;;;-143.10;52.73;50971.53;4845819;29;20053;-67
2022/06/19 08:51:22;;;;;;;17.27;8.50;;;;;;;-143.10;54.53;50942.16;4836517;29;20145;-67
2022/06/19 08:54:41;;;;;;;14.48;6.32;;;;;;;-143.10;52.08;50965.66;4836057;29;20064;-67
2022/06/19 08:57:51;;;;;;;14.80;6.00;;;;;;;-143.10;49.59;50995.03;4836278;29;20167;-66
2022/06/19 09:01:02;;;;;;;13.60;5.43;;;;;;;-143.10;50.49;50944.13;4825799;29;20657;-67
2022/06/19 09:07:12;;;;;;;17.92;5.95;;;;;;;-143.10;49.50;50908.88;4836443;29;20399;-66
2022/06/19 09:10:04;;;;;;;11.32;5.15;;;;;;;-143.10;48.35;50959.78;4836511;29;20073;-66
2022/06/19 09:13:19;;;;;;;12.68;5.47;;;;;;;-143.10;50.35;50975.44;4849774;29;20054;-66
2022/06/19 09:16:14;;;;;;;12.25;5.93;;;;;;;-143.10;48.67;50944.13;4836106;29;20041;-67
2022/06/19 09:19:29;;;;;;;11.48;5.15;;;;;;;-143.10;50.84;50940.19;4836306;29;20065;-66
2022/06/19 09:22:59;;;;;;;12.68;4.95;;;;;;;-143.10;51.46;50932.38;4835309;29;20053;-66
2022/06/19 09:25:45;;;;;;;10.73;5.50;;;;;;;-143.10;52.78;50963.69;4836018;29;20238;-67
2022/06/19 09:28:37;;;;;;;15.48;5.82;;;;;;;-143.10;51.96;50967.59;4837071;29;20068;-67
2022/06/19 09:31:44;;;;;;;16.13;5.13;;;;;;;-143.10;50.49;50946.06;4855418;29;20400;-67
2022/06/19 09:34:32;;;;;;;;;;;;;;;-143.10;51.08;50904.97;4854018;29;20077;-67
2022/06/19 09:37:35;;;;;;;15.57;5.25;;;;;;;-143.10;51.51;50934.31;4853020;29;19931;-65
2022/06/19 09:40:31;;;;;;;13.75;5.15;;;;;;;-143.10;53.83;50955.88;4853103;29;20144;-67
2022/06/19 09:43:32;;;;;;;10.00;4.60;;;;;;;-143.10;52.05;50951.94;4853827;29;20136;-67
2022/06/19 09:46:35;;;;;;;15.93;5.47;;;;;;;-143.10;51.38;50951.94;4868528;29;20113;-67
2022/06/19 09:49:40;;;;;;;16.73;5.75;;;;;;;-143.10;51.79;50944.13;4853630;29;20057;-67
2022/06/19 09:52:43;;;;;;;10.07;4.93;;;;;;;-143.10;51.79;50983.28;4853552;29;20068;-67
2022/06/19 09:55:43;;;;;;;11.18;4.82;;;;;;;-143.10;52.16;50948.03;4853491;29;20049;-67
2022/06/19 09:58:45;;;;;;;9.00;5.20;;;;;;;-143.10;50.51;50944.13;4853601;29;20071;-66
2022/06/19 10:01:36;;;;;;;10.43;5.05;;;;;;;-143.10;53.39;50912.78;4853646;29;20053;-66
2022/06/19 10:04:43;;;;;;;8.80;5.28;;;;;;;-143.10;50.04;50959.78;4855403;29;20049;-66
2022/06/19 10:07:36;;;;;;;;;;;;;;;-143.10;52.78;50934.31;4853654;29;20791;-65
2022/06/19 10:10:48;;;;;;;11.07;4.63;;;;;;;-143.10;52.07;50922.59;4853267;29;20309;-67
2022/06/19 10:13:43;;;;;;;13.40;5.15;;;;;;;-143.10;51.71;50951.94;4853674;29;20703;-66
2022/06/19 10:17:02;;;;;;;16.23;5.53;;;;;;;-143.10;52.38;50942.16;4853854;29;20073;-67
2022/06/19 10:19:57;;;;;;;12.30;5.97;;;;;;;-143.10;52.34;50940.19;4853977;29;20046;-66
2022/06/19 10:23:08;;;;;;;11.30;4.75;;;;;;;-143.10;50.76;50912.78;4854268;29;20056;-67
2022/06/19 10:26:06;;;;;;;16.13;5.07;;;;;;;-143.10;49.59;50959.78;4853747;29;20117;-67
2022/06/19 10:29:26;;;;;;;9.18;4.85;;;;;;;-143.10;52.74;50936.28;4853212;29;20482;-66
2022/06/19 10:32:18;;;;;;;15.63;5.43;;;;;;;-143.10;52.81;50914.75;4837236;29;20558;-67
2022/06/19 10:35:16;;;;;;;9.88;4.50;;;;;;;-143.10;51.46;50932.38;4853537;29;20073;-67
2022/06/19 10:38:20;;;;;;;14.00;4.75;;;;;;;-143.10;51.97;50948.03;4853173;29;20053;-65
2022/06/19 10:45:04;;;;;;;11.38;4.28;;;;;;;-143.10;52.18;50926.50;4852521;29;20065;-66
2022/06/19 10:48:19;;;;;;;12.88;4.55;;;;;;;-143.10;50.18;50926.50;4821936;29;20060;-66
2022/06/19 10:51:16;;;;;;;12.20;4.90;;;;;;;-143.10;52.88;50924.53;4852669;29;20049;-66
2022/06/19 10:54:37;;;;;;;14.00;4.90;;;;;;;-143.10;51.80;50951.94;4852694;29;20385;-68
2022/06/19 10:57:55;;;;;;;10.38;4.80;;;;;;;-143.10;52.46;50963.69;4851254;29;20114;-66
2022/06/19 11:00:37;;;;;;;10.38;4.18;;;;;;;-143.10;51.93;50950.00;4852751;29;20129;-66
2022/06/19 11:07:05;;;;;;;12.85;4.88;;;;;;;-143.10;51.43;50912.78;4852887;29;20061;-66
2022/06/19 11:09:54;;;;;;;8.68;3.35;;;;;;;-143.10;52.32;50926.50;4852208;29;20766;-66
2022/06/19 11:12:56;;;;;;;12.77;4.55;;;;;;;-143.10;51.21;50946.06;4852519;29;20053;-66
2022/06/19 11:15:52;;;;;;;13.18;3.78;;;;;;;-143.10;52.21;50916.72;4851148;29;20331;-66
2022/06/19 11:18:50;;;;;;;11.95;3.95;;;;;;;-143.10;51.92;50916.72;4852228;29;20061;-67
2022/06/19 11:21:36;;;;;;;11.30;3.75;;;;;;;-143.10;50.94;50932.38;4852056;29;20088;-67
2022/06/19 11:24:29;;;;;;;10.27;3.58;;;;;;;-143.10;53.46;50932.38;4852407;29;20129;-67
2022/06/19 11:27:28;;;;;;;16.17;3.97;;;;;;;-143.10;53.53;50912.78;4851884;29;20057;-67
2022/06/19 11:30:10;;;;;;;9.10;3.88;;;;;;;-143.10;51.77;50940.19;4852141;29;20072;-67
2022/06/19 11:33:07;;;;;;;7.93;3.63;;;;;;;-143.10;52.02;50922.59;4855931;29;20037;-67
2022/06/19 11:36:08;;;;;;;5.88;3.53;;;;;;;-143.10;51.94;50928.44;4852080;29;20394;-67
2022/06/19 11:38:46;;;;;;;9.55;3.40;;;;;;;-143.10;52.64;50944.13;4852329;29;20073;-66
2022/06/19 11:41:42;;;;;;;8.98;4.15;;;;;;;-143.10;53.97;50908.88;4852078;29;20045;-66
2022/06/19 11:44:21;;;;;;;12.10;3.92;;;;;;;-143.10;52.79;50936.28;4851622;29;20050;-66
2022/06/19 11:47:18;;;;;;;11.77;4.13;;;;;;;-143.10;53.06;50932.38;4850951;29;20643;-66
2022/06/19 11:50:15;;;;;;;11.00;4.13;;;;;;;-143.10;54.03;50940.19;4851833;29;20053;-66
2022/06/19 11:53:08;;;;;;;10.23;3.75;;;;;;;-143.10;54.66;50924.53;4851967;29;20445;-67
2022/06/19 11:55:57;;;;;;;14.75;3.70;;;;;;;-143.10;54.52;50932.38;4851605;29;20113;-65
2022/06/19 11:58:56;;;;;;;6.38;3.50;;;;;;;-143.10;52.43;50922.59;4869704;29;20049;-66
2022/06/19 12:01:51;;;;;;;5.75;3.60;;;;;;;-143.10;52.88;50936.28;4870352;29;20053;-66
2022/06/19 12:04:39;;;;;;;6.75;3.47;;;;;;;-143.10;53.52;50926.50;4870061;29;20057;-66
2022/06/19 12:07:32;;;;;;;9.60;4.07;;;;;;;-143.10;53.81;50944.13;4870269;29;20117;-66
2022/06/19 12:10:14;;;;;;;5.95;3.03;;;;;;;-143.10;53.55;50918.66;4870004;29;20426;-67
2022/06/19 12:13:06;;;;;;;11.75;3.50;;;;;;;-143.10;52.80;50920.63;4870484;29;20616;-67
2022/06/19 12:15:59;;;;;;;12.45;3.97;;;;;;;-143.10;53.41;50901.03;4869259;29;20044;-66
2022/06/19 12:18:49;;;;;;;6.43;3.05;;;;;;;-143.10;53.28;50889.31;4870217;29;20121;-67
2022/06/19 12:21:43;;;;;;;6.95;3.47;;;;;;;-143.10;53.90;50930.41;4869689;29;20136;-66
2022/06/19 12:24:53;;;;;;;10.73;3.28;;;;;;;-143.10;54.07;50924.53;4870116;29;20052;-66
2022/06/19 12:27:42;;;;;;;6.35;3.63;;;;;;;-143.10;55.26;50912.78;4869882;29;20081;-66
2022/06/19 12:30:53;;;;;;;6.30;4.30;;;;;;;-143.10;55.48;50924.53;4853196;29;20053;-66
2022/06/19 12:34:04;;;;;;;8.77;4.43;;;;;;;-143.10;53.81;50912.78;4853966;29;20054;-66
2022/06/19 12:37:01;;;;;;;12.40;3.90;;;;;;;-143.10;55.35;50932.38;4833826;29;20050;-65
2022/06/19 12:39:57;;;;;;;10.05;4.32;;;;;;;-143.10;56.47;50955.88;4833231;29;20551;-66
2022/06/19 12:42:54;;;;;;;10.80;4.70;;;;;;;-143.10;55.64;50946.06;4816883;29;20118;-66
2022/06/19 12:45:56;;;;;;;14.50;5.38;;;;;;;-143.10;56.86;50904.97;4832032;29;20826;-66
2022/06/19 12:49:16;;;;;;;12.10;4.30;;;;;;;-143.10;55.46;50914.75;4843428;29;20539;-66
2022/06/19 12:52:23;;;;;;;8.10;3.92;;;;;;;-143.10;56.74;50957.81;4850276;29;20114;-67
2022/06/19 12:55:07;;;;;;;11.30;4.32;;;;;;;-143.10;54.52;50924.53;4851275;29;20057;-66
2022/06/19 12:58:02;;;;;;;10.13;4.53;;;;;;;-143.10;54.67;50940.19;4851084;29;20057;-66
2022/06/19 13:00:57;;;;;;;9.05;4.80;;;;;;;-143.10;54.92;50924.53;4851550;29;20050;-66
2022/06/19 13:04:15;;;;;;;7.93;3.97;;;;;;;-143.10;55.19;50922.59;4854315;29;20056;-67
2022/06/19 13:07:10;;;;;;;9.75;4.60;;;;;;;-143.10;54.08;50936.28;4854384;29;20053;-65
2022/06/19 13:10:09;;;;;;;13.48;4.03;;;;;;;-143.10;55.66;50948.03;4840350;29;20049;-66
2022/06/19 13:13:16;;;;;;;10.02;4.03;;;;;;;-143.10;54.86;50908.88;4854450;29;20053;-66
2022/06/19 13:16:03;;;;;;;9.10;3.85;;;;;;;-143.10;59.36;50922.59;4854278;29;20172;-66
2022/06/19 13:19:11;;;;;;;10.70;3.92;;;;;;;-143.10;56.61;50950.00;4854522;29;20354;-66